sensor_id;sensor_type;location;lat;lon;timestamp;temperature;humidity
78438;SHT31;67736;51.978;5.656;2023-04-01T00:01:55;12.6;76.6
78438;SHT31;67736;51.978;5.656;2023-04-01T00:04:25;12.6;76.6
78438;SHT31;67736;51.978;5.656;2023-04-01T00:06:55;12.6;76.7
78438;SHT31;67736;51.978;5.656;2023-04-01T00:09:24;12.6;76.7
78438;SHT31;67736;51.978;5.656;2023-04-01T00:11:53;12.6;76.7
78438;SHT31;67736;51.978;5.656;2023-04-01T00:14:23;12.6;76.7
78438;SHT31;67736;51.978;5.656;2023-04-01T00:16:53;12.6;76.6
78438;SHT31;67736;51.978;5.656;2023-04-01T00:19:22;12.6;76.7
78438;SHT31;67736;51.978;5.656;2023-04-01T00:21:52;12.6;76.8
78438;SHT31;67736;51.978;5.656;2023-04-01T00:24:23;12.6;76.5
78438;SHT31;67736;51.978;5.656;2023-04-01T00:26:52;12.6;76.5
78438;SHT31;67736;51.978;5.656;2023-04-01T00:29:22;12.6;76.3
78438;SHT31;67736;51.978;5.656;2023-04-01T00:31:57;12.6;76.2
78438;SHT31;67736;51.978;5.656;2023-04-01T00:34:28;12.6;76.3
78438;SHT31;67736;51.978;5.656;2023-04-01T00:36:58;12.6;76.4
78438;SHT31;67736;51.978;5.656;2023-04-01T00:39:29;12.7;76.2
78438;SHT31;67736;51.978;5.656;2023-04-01T00:42:00;12.7;76.2
78438;SHT31;67736;51.978;5.656;2023-04-01T00:44:33;12.7;76.2
78438;SHT31;67736;51.978;5.656;2023-04-01T00:47:03;12.7;76.2
78438;SHT31;67736;51.978;5.656;2023-04-01T00:49:35;12.7;75.9
78438;SHT31;67736;51.978;5.656;2023-04-01T00:52:08;12.7;75.9
78438;SHT31;67736;51.978;5.656;2023-04-01T00:54:41;12.7;76.1
78438;SHT31;67736;51.978;5.656;2023-04-01T00:57:16;12.8;76.0
78438;SHT31;67736;51.978;5.656;2023-04-01T00:59:50;12.8;76.1
78438;SHT31;67736;51.978;5.656;2023-04-01T01:02:23;12.8;76.2
78438;SHT31;67736;51.978;5.656;2023-04-01T01:04:53;12.8;76.2
78438;SHT31;67736;51.978;5.656;2023-04-01T01:07:31;12.8;76.1
78438;SHT31;67736;51.978;5.656;2023-04-01T01:10:12;12.8;76.2
78438;SHT31;67736;51.978;5.656;2023-04-01T01:12:46;12.8;76.2
78438;SHT31;67736;51.978;5.656;2023-04-01T01:15:25;12.8;76.0
78438;SHT31;67736;51.978;5.656;2023-04-01T01:18:00;12.8;76.1
78438;SHT31;67736;51.978;5.656;2023-04-01T01:20:56;12.8;76.1
78438;SHT31;67736;51.978;5.656;2023-04-01T01:23:54;12.8;75.9
78438;SHT31;67736;51.978;5.656;2023-04-01T01:26:49;12.8;75.8
78438;SHT31;67736;51.978;5.656;2023-04-01T01:31:12;12.8;75.6
78438;SHT31;67736;51.978;5.656;2023-04-01T01:33:59;12.8;75.2
78438;SHT31;67736;51.978;5.656;2023-04-01T01:36:33;12.7;75.2
78438;SHT31;67736;51.978;5.656;2023-04-01T01:39:07;12.7;75.1
78438;SHT31;67736;51.978;5.656;2023-04-01T01:41:40;12.7;74.8
78438;SHT31;67736;51.978;5.656;2023-04-01T01:44:13;12.7;74.8
78438;SHT31;67736;51.978;5.656;2023-04-01T01:46:45;12.7;74.6
78438;SHT31;67736;51.978;5.656;2023-04-01T01:49:17;12.7;74.2
78438;SHT31;67736;51.978;5.656;2023-04-01T01:51:49;12.7;74.1
78438;SHT31;67736;51.978;5.656;2023-04-01T01:54:19;12.7;74.4
78438;SHT31;67736;51.978;5.656;2023-04-01T01:56:54;12.7;74.5
78438;SHT31;67736;51.978;5.656;2023-04-01T01:59:27;12.7;74.2
78438;SHT31;67736;51.978;5.656;2023-04-01T02:01:58;12.7;74.3
78438;SHT31;67736;51.978;5.656;2023-04-01T02:04:28;12.6;74.0
78438;SHT31;67736;51.978;5.656;2023-04-01T02:07:02;12.6;74.4
78438;SHT31;67736;51.978;5.656;2023-04-01T02:09:34;12.6;74.3
78438;SHT31;67736;51.978;5.656;2023-04-01T02:12:06;12.6;74.3
78438;SHT31;67736;51.978;5.656;2023-04-01T02:14:41;12.6;74.7
78438;SHT31;67736;51.978;5.656;2023-04-01T02:17:14;12.6;74.9
78438;SHT31;67736;51.978;5.656;2023-04-01T02:19:49;12.6;75.0
78438;SHT31;67736;51.978;5.656;2023-04-01T02:22:23;12.6;75.2
78438;SHT31;67736;51.978;5.656;2023-04-01T02:24:58;12.6;75.0
78438;SHT31;67736;51.978;5.656;2023-04-01T02:27:29;12.6;75.0
78438;SHT31;67736;51.978;5.656;2023-04-01T02:29:59;12.5;75.2
78438;SHT31;67736;51.978;5.656;2023-04-01T02:32:32;12.5;75.2
78438;SHT31;67736;51.978;5.656;2023-04-01T02:35:03;12.5;75.2
78438;SHT31;67736;51.978;5.656;2023-04-01T02:37:34;12.5;75.3
78438;SHT31;67736;51.978;5.656;2023-04-01T02:40:05;12.5;75.1
78438;SHT31;67736;51.978;5.656;2023-04-01T02:42:35;12.5;75.3
78438;SHT31;67736;51.978;5.656;2023-04-01T02:45:06;12.5;75.4
78438;SHT31;67736;51.978;5.656;2023-04-01T02:47:38;12.5;75.5
78438;SHT31;67736;51.978;5.656;2023-04-01T02:50:08;12.5;75.6
78438;SHT31;67736;51.978;5.656;2023-04-01T02:52:38;12.5;75.6
78438;SHT31;67736;51.978;5.656;2023-04-01T02:55:08;12.5;75.5
78438;SHT31;67736;51.978;5.656;2023-04-01T02:57:38;12.5;75.3
78438;SHT31;67736;51.978;5.656;2023-04-01T03:00:08;12.5;75.2
78438;SHT31;67736;51.978;5.656;2023-04-01T03:02:39;12.5;74.9
78438;SHT31;67736;51.978;5.656;2023-04-01T03:05:09;12.5;74.8
78438;SHT31;67736;51.978;5.656;2023-04-01T03:07:40;12.5;74.7
78438;SHT31;67736;51.978;5.656;2023-04-01T03:10:10;12.5;74.7
78438;SHT31;67736;51.978;5.656;2023-04-01T03:12:40;12.5;75.0
78438;SHT31;67736;51.978;5.656;2023-04-01T03:15:11;12.5;74.8
78438;SHT31;67736;51.978;5.656;2023-04-01T03:17:42;12.5;74.9
78438;SHT31;67736;51.978;5.656;2023-04-01T03:20:12;12.4;74.8
78438;SHT31;67736;51.978;5.656;2023-04-01T03:22:42;12.4;74.8
78438;SHT31;67736;51.978;5.656;2023-04-01T03:25:12;12.4;75.0
78438;SHT31;67736;51.978;5.656;2023-04-01T03:27:42;12.4;75.0
78438;SHT31;67736;51.978;5.656;2023-04-01T03:30:12;12.4;74.8
78438;SHT31;67736;51.978;5.656;2023-04-01T03:32:42;12.4;75.1
78438;SHT31;67736;51.978;5.656;2023-04-01T03:35:13;12.4;74.8
78438;SHT31;67736;51.978;5.656;2023-04-01T03:37:43;12.4;74.8
78438;SHT31;67736;51.978;5.656;2023-04-01T03:40:13;12.4;75.0
78438;SHT31;67736;51.978;5.656;2023-04-01T03:42:42;12.3;75.1
78438;SHT31;67736;51.978;5.656;2023-04-01T03:45:12;12.3;75.2
78438;SHT31;67736;51.978;5.656;2023-04-01T03:47:42;12.3;75.3
78438;SHT31;67736;51.978;5.656;2023-04-01T03:50:12;12.3;75.3
78438;SHT31;67736;51.978;5.656;2023-04-01T03:52:41;12.3;75.5
78438;SHT31;67736;51.978;5.656;2023-04-01T03:55:13;12.3;75.4
78438;SHT31;67736;51.978;5.656;2023-04-01T03:57:42;12.3;75.3
78438;SHT31;67736;51.978;5.656;2023-04-01T04:00:13;12.3;75.3
78438;SHT31;67736;51.978;5.656;2023-04-01T04:02:42;12.3;75.4
78438;SHT31;67736;51.978;5.656;2023-04-01T04:05:14;12.2;75.5
78438;SHT31;67736;51.978;5.656;2023-04-01T04:07:43;12.2;75.7
78438;SHT31;67736;51.978;5.656;2023-04-01T04:10:13;12.2;76.0
78438;SHT31;67736;51.978;5.656;2023-04-01T04:12:43;12.2;76.1
78438;SHT31;67736;51.978;5.656;2023-04-01T04:15:12;12.2;76.2
78438;SHT31;67736;51.978;5.656;2023-04-01T04:17:42;12.2;76.1
78438;SHT31;67736;51.978;5.656;2023-04-01T04:20:13;12.2;76.1
78438;SHT31;67736;51.978;5.656;2023-04-01T04:22:44;12.2;76.2
78438;SHT31;67736;51.978;5.656;2023-04-01T04:25:16;12.2;76.4
78438;SHT31;67736;51.978;5.656;2023-04-01T04:27:45;12.2;76.4
78438;SHT31;67736;51.978;5.656;2023-04-01T04:30:17;12.2;76.5
78438;SHT31;67736;51.978;5.656;2023-04-01T04:32:47;12.2;76.7
78438;SHT31;67736;51.978;5.656;2023-04-01T04:35:16;12.2;76.7
78438;SHT31;67736;51.978;5.656;2023-04-01T04:37:47;12.1;76.8
78438;SHT31;67736;51.978;5.656;2023-04-01T04:40:17;12.1;76.9
78438;SHT31;67736;51.978;5.656;2023-04-01T04:42:46;12.1;76.9
78438;SHT31;67736;51.978;5.656;2023-04-01T04:45:16;12.1;77.0
78438;SHT31;67736;51.978;5.656;2023-04-01T04:47:46;12.1;77.0
78438;SHT31;67736;51.978;5.656;2023-04-01T04:50:15;12.1;77.2
78438;SHT31;67736;51.978;5.656;2023-04-01T04:52:45;12.1;77.2
78438;SHT31;67736;51.978;5.656;2023-04-01T04:55:14;12.1;77.3
78438;SHT31;67736;51.978;5.656;2023-04-01T04:57:44;12.1;77.3
78438;SHT31;67736;51.978;5.656;2023-04-01T05:00:14;12.1;77.4
78438;SHT31;67736;51.978;5.656;2023-04-01T05:02:43;12.1;77.5
78438;SHT31;67736;51.978;5.656;2023-04-01T05:05:13;12.1;77.6
78438;SHT31;67736;51.978;5.656;2023-04-01T05:07:42;12.1;77.7
78438;SHT31;67736;51.978;5.656;2023-04-01T05:10:11;12.1;77.9
78438;SHT31;67736;51.978;5.656;2023-04-01T05:12:41;12.1;78.0
78438;SHT31;67736;51.978;5.656;2023-04-01T05:15:11;12.1;78.1
78438;SHT31;67736;51.978;5.656;2023-04-01T05:17:41;12.1;78.1
78438;SHT31;67736;51.978;5.656;2023-04-01T05:20:12;12.1;78.1
78438;SHT31;67736;51.978;5.656;2023-04-01T05:22:43;12.1;78.3
78438;SHT31;67736;51.978;5.656;2023-04-01T05:25:14;12.1;78.4
78438;SHT31;67736;51.978;5.656;2023-04-01T05:27:44;12.1;78.4
78438;SHT31;67736;51.978;5.656;2023-04-01T05:30:13;12.1;78.6
78438;SHT31;67736;51.978;5.656;2023-04-01T05:32:43;12.1;78.8
78438;SHT31;67736;51.978;5.656;2023-04-01T05:35:12;12.1;78.9
78438;SHT31;67736;51.978;5.656;2023-04-01T05:37:44;12.1;79.0
78438;SHT31;67736;51.978;5.656;2023-04-01T05:40:13;12.1;79.0
78438;SHT31;67736;51.978;5.656;2023-04-01T05:42:43;12.1;79.0
78438;SHT31;67736;51.978;5.656;2023-04-01T05:45:12;12.1;79.0
78438;SHT31;67736;51.978;5.656;2023-04-01T05:47:43;12.2;79.0
78438;SHT31;67736;51.978;5.656;2023-04-01T05:50:12;12.2;79.1
78438;SHT31;67736;51.978;5.656;2023-04-01T05:52:45;12.2;79.2
78438;SHT31;67736;51.978;5.656;2023-04-01T05:55:15;12.2;79.1
78438;SHT31;67736;51.978;5.656;2023-04-01T05:57:46;12.2;79.1
78438;SHT31;67736;51.978;5.656;2023-04-01T06:00:17;12.2;79.1
78438;SHT31;67736;51.978;5.656;2023-04-01T06:02:49;12.2;79.1
78438;SHT31;67736;51.978;5.656;2023-04-01T06:05:21;12.2;79.0
78438;SHT31;67736;51.978;5.656;2023-04-01T06:07:57;12.3;78.9
78438;SHT31;67736;51.978;5.656;2023-04-01T06:10:38;12.3;78.9
78438;SHT31;67736;51.978;5.656;2023-04-01T06:13:20;12.3;78.9
78438;SHT31;67736;51.978;5.656;2023-04-01T06:16:02;12.3;78.9
78438;SHT31;67736;51.978;5.656;2023-04-01T06:19:19;12.3;78.9
78438;SHT31;67736;51.978;5.656;2023-04-01T06:26:51;12.3;78.8
78438;SHT31;67736;51.978;5.656;2023-04-01T06:29:41;12.3;79.0
78438;SHT31;67736;51.978;5.656;2023-04-01T06:32:39;12.3;79.0
78438;SHT31;67736;51.978;5.656;2023-04-01T06:35:31;12.4;79.1
78438;SHT31;67736;51.978;5.656;2023-04-01T06:38:13;12.4;79.0
78438;SHT31;67736;51.978;5.656;2023-04-01T06:41:08;12.4;79.0
78438;SHT31;67736;51.978;5.656;2023-04-01T06:43:53;12.4;78.9
78438;SHT31;67736;51.978;5.656;2023-04-01T06:46:37;12.4;78.8
78438;SHT31;67736;51.978;5.656;2023-04-01T06:49:32;12.4;78.7
78438;SHT31;67736;51.978;5.656;2023-04-01T06:52:14;12.4;78.7
78438;SHT31;67736;51.978;5.656;2023-04-01T06:54:51;12.4;78.8
78438;SHT31;67736;51.978;5.656;2023-04-01T06:57:31;12.4;78.8
78438;SHT31;67736;51.978;5.656;2023-04-01T07:00:11;12.4;78.8
78438;SHT31;67736;51.978;5.656;2023-04-01T07:02:45;12.4;78.7
78438;SHT31;67736;51.978;5.656;2023-04-01T07:05:21;12.4;78.7
78438;SHT31;67736;51.978;5.656;2023-04-01T07:07:54;12.4;78.9
78438;SHT31;67736;51.978;5.656;2023-04-01T07:10:38;12.4;79.0
78438;SHT31;67736;51.978;5.656;2023-04-01T07:13:15;12.4;79.0
78438;SHT31;67736;51.978;5.656;2023-04-01T07:15:54;12.4;79.0
78438;SHT31;67736;51.978;5.656;2023-04-01T07:18:30;12.4;79.0
78438;SHT31;67736;51.978;5.656;2023-04-01T07:21:03;12.5;78.8
78438;SHT31;67736;51.978;5.656;2023-04-01T07:23:39;12.5;78.8
78438;SHT31;67736;51.978;5.656;2023-04-01T07:26:20;12.5;78.7
78438;SHT31;67736;51.978;5.656;2023-04-01T07:28:52;12.5;78.8
78438;SHT31;67736;51.978;5.656;2023-04-01T07:31:33;12.5;78.8
78438;SHT31;67736;51.978;5.656;2023-04-01T07:34:12;12.5;79.0
78438;SHT31;67736;51.978;5.656;2023-04-01T07:36:50;12.5;78.8
78438;SHT31;67736;51.978;5.656;2023-04-01T07:39:32;12.5;78.8
78438;SHT31;67736;51.978;5.656;2023-04-01T07:42:11;12.5;78.9
78438;SHT31;67736;51.978;5.656;2023-04-01T07:44:52;12.5;78.8
78438;SHT31;67736;51.978;5.656;2023-04-01T07:47:41;12.6;78.8
78438;SHT31;67736;51.978;5.656;2023-04-01T07:50:20;12.6;78.6
78438;SHT31;67736;51.978;5.656;2023-04-01T07:52:59;12.6;78.4
78438;SHT31;67736;51.978;5.656;2023-04-01T07:55:38;12.6;78.5
78438;SHT31;67736;51.978;5.656;2023-04-01T07:58:16;12.6;78.4
78438;SHT31;67736;51.978;5.656;2023-04-01T08:00:54;12.6;78.2
78438;SHT31;67736;51.978;5.656;2023-04-01T08:03:33;12.6;77.8
78438;SHT31;67736;51.978;5.656;2023-04-01T08:06:13;12.6;77.8
78438;SHT31;67736;51.978;5.656;2023-04-01T08:08:55;12.6;77.8
78438;SHT31;67736;51.978;5.656;2023-04-01T08:11:39;12.7;78.1
78438;SHT31;67736;51.978;5.656;2023-04-01T08:14:18;12.7;77.8
78438;SHT31;67736;51.978;5.656;2023-04-01T08:16:59;12.7;77.7
78438;SHT31;67736;51.978;5.656;2023-04-01T08:19:44;12.7;77.9
78438;SHT31;67736;51.978;5.656;2023-04-01T08:22:25;12.7;78.1
78438;SHT31;67736;51.978;5.656;2023-04-01T08:25:01;12.8;78.1
78438;SHT31;67736;51.978;5.656;2023-04-01T08:27:37;12.8;78.0
78438;SHT31;67736;51.978;5.656;2023-04-01T08:30:20;12.8;78.2
78438;SHT31;67736;51.978;5.656;2023-04-01T08:32:55;12.8;77.9
78438;SHT31;67736;51.978;5.656;2023-04-01T08:35:31;12.8;78.1
78438;SHT31;67736;51.978;5.656;2023-04-01T08:38:12;12.8;78.3
78438;SHT31;67736;51.978;5.656;2023-04-01T08:40:54;12.8;78.2
78438;SHT31;67736;51.978;5.656;2023-04-01T08:43:39;12.9;78.4
78438;SHT31;67736;51.978;5.656;2023-04-01T08:46:37;12.9;78.3
78438;SHT31;67736;51.978;5.656;2023-04-01T08:50:18;12.9;78.0
78438;SHT31;67736;51.978;5.656;2023-04-01T08:53:00;12.9;78.4
78438;SHT31;67736;51.978;5.656;2023-04-01T08:55:43;12.9;78.4
78438;SHT31;67736;51.978;5.656;2023-04-01T08:58:42;12.9;78.1
78438;SHT31;67736;51.978;5.656;2023-04-01T09:01:26;13.0;78.0
78438;SHT31;67736;51.978;5.656;2023-04-01T09:04:27;13.0;77.8
78438;SHT31;67736;51.978;5.656;2023-04-01T09:07:11;13.0;77.7
78438;SHT31;67736;51.978;5.656;2023-04-01T09:10:08;13.0;77.7
78438;SHT31;67736;51.978;5.656;2023-04-01T09:12:57;13.0;77.4
78438;SHT31;67736;51.978;5.656;2023-04-01T09:15:50;13.0;76.9
78438;SHT31;67736;51.978;5.656;2023-04-01T09:23:31;13.0;77.4
78438;SHT31;67736;51.978;5.656;2023-04-01T09:26:39;13.0;77.8
78438;SHT31;67736;51.978;5.656;2023-04-01T09:29:17;13.1;77.5
78438;SHT31;67736;51.978;5.656;2023-04-01T09:32:04;13.1;77.7
78438;SHT31;67736;51.978;5.656;2023-04-01T09:34:54;13.1;78.0
78438;SHT31;67736;51.978;5.656;2023-04-01T09:37:39;13.1;77.5
78438;SHT31;67736;51.978;5.656;2023-04-01T09:40:26;13.2;77.2
78438;SHT31;67736;51.978;5.656;2023-04-01T09:43:23;13.2;77.3
78438;SHT31;67736;51.978;5.656;2023-04-01T09:46:09;13.2;76.9
78438;SHT31;67736;51.978;5.656;2023-04-01T09:49:40;13.3;76.9
78438;SHT31;67736;51.978;5.656;2023-04-01T09:52:41;13.3;77.0
78438;SHT31;67736;51.978;5.656;2023-04-01T09:55:35;13.3;77.0
78438;SHT31;67736;51.978;5.656;2023-04-01T09:58:30;13.3;77.8
78438;SHT31;67736;51.978;5.656;2023-04-01T10:03:02;13.4;77.8
78438;SHT31;67736;51.978;5.656;2023-04-01T10:18:12;13.7;77.0
78438;SHT31;67736;51.978;5.656;2023-04-01T10:21:02;13.8;76.3
78438;SHT31;67736;51.978;5.656;2023-04-01T10:29:34;13.9;75.9
78438;SHT31;67736;51.978;5.656;2023-04-01T10:33:06;14.1;76.5
78438;SHT31;67736;51.978;5.656;2023-04-01T10:36:09;14.2;75.4
78438;SHT31;67736;51.978;5.656;2023-04-01T10:39:17;14.3;75.3
78438;SHT31;67736;51.978;5.656;2023-04-01T10:46:43;14.5;73.6
78438;SHT31;67736;51.978;5.656;2023-04-01T10:53:10;14.7;72.0
78438;SHT31;67736;51.978;5.656;2023-04-01T10:57:49;14.8;72.0
78438;SHT31;67736;51.978;5.656;2023-04-01T11:00:49;14.9;71.4
78438;SHT31;67736;51.978;5.656;2023-04-01T11:03:50;15.0;71.1
78438;SHT31;67736;51.978;5.656;2023-04-01T11:08:54;15.0;70.5
78438;SHT31;67736;51.978;5.656;2023-04-01T11:12:05;15.1;70.2
78438;SHT31;67736;51.978;5.656;2023-04-01T11:16:15;15.2;69.9
78438;SHT31;67736;51.978;5.656;2023-04-01T11:20:40;15.2;69.7
78438;SHT31;67736;51.978;5.656;2023-04-01T11:23:22;15.2;69.2
78438;SHT31;67736;51.978;5.656;2023-04-01T11:26:18;15.2;70.0
78438;SHT31;67736;51.978;5.656;2023-04-01T11:30:25;15.2;69.0
78438;SHT31;67736;51.978;5.656;2023-04-01T11:33:02;15.2;68.3
78438;SHT31;67736;51.978;5.656;2023-04-01T11:36:24;15.1;68.6
78438;SHT31;67736;51.978;5.656;2023-04-01T11:39:00;15.1;69.7
78438;SHT31;67736;51.978;5.656;2023-04-01T11:41:38;15.1;69.8
78438;SHT31;67736;51.978;5.656;2023-04-01T11:44:20;15.1;70.5
78438;SHT31;67736;51.978;5.656;2023-04-01T11:47:08;15.1;69.2
78438;SHT31;67736;51.978;5.656;2023-04-01T11:49:53;15.1;69.4
78438;SHT31;67736;51.978;5.656;2023-04-01T11:52:45;15.1;68.5
78438;SHT31;67736;51.978;5.656;2023-04-01T11:55:32;15.1;69.0
78438;SHT31;67736;51.978;5.656;2023-04-01T11:58:51;15.1;69.8
78438;SHT31;67736;51.978;5.656;2023-04-01T12:01:31;15.0;69.2
78438;SHT31;67736;51.978;5.656;2023-04-01T12:04:32;15.0;69.3
78438;SHT31;67736;51.978;5.656;2023-04-01T12:07:17;14.9;69.5
78438;SHT31;67736;51.978;5.656;2023-04-01T12:09:54;14.9;70.5
78438;SHT31;67736;51.978;5.656;2023-04-01T12:12:38;14.9;70.3
78438;SHT31;67736;51.978;5.656;2023-04-01T12:15:23;14.8;70.6
78438;SHT31;67736;51.978;5.656;2023-04-01T12:18:05;14.8;71.1
78438;SHT31;67736;51.978;5.656;2023-04-01T12:20:44;14.8;69.7
78438;SHT31;67736;51.978;5.656;2023-04-01T12:23:36;14.8;69.6
78438;SHT31;67736;51.978;5.656;2023-04-01T12:26:25;14.7;70.8
78438;SHT31;67736;51.978;5.656;2023-04-01T12:29:11;14.7;70.4
78438;SHT31;67736;51.978;5.656;2023-04-01T12:31:55;14.7;70.5
78438;SHT31;67736;51.978;5.656;2023-04-01T12:34:47;14.7;69.8
78438;SHT31;67736;51.978;5.656;2023-04-01T12:37:29;14.6;69.9
78438;SHT31;67736;51.978;5.656;2023-04-01T12:40:23;14.6;70.3
78438;SHT31;67736;51.978;5.656;2023-04-01T12:43:04;14.6;71.2
78438;SHT31;67736;51.978;5.656;2023-04-01T12:45:35;14.6;71.2
78438;SHT31;67736;51.978;5.656;2023-04-01T12:48:50;14.6;71.8
78438;SHT31;67736;51.978;5.656;2023-04-01T12:52:57;14.6;72.3
78438;SHT31;67736;51.978;5.656;2023-04-01T12:55:38;14.6;71.3
78438;SHT31;67736;51.978;5.656;2023-04-01T12:58:36;14.6;70.7
78438;SHT31;67736;51.978;5.656;2023-04-01T13:03:31;14.6;72.1
78438;SHT31;67736;51.978;5.656;2023-04-01T13:06:24;14.6;72.5
78438;SHT31;67736;51.978;5.656;2023-04-01T13:09:06;14.6;72.5
78438;SHT31;67736;51.978;5.656;2023-04-01T13:11:54;14.6;72.7
78438;SHT31;67736;51.978;5.656;2023-04-01T13:14:48;14.7;72.8
78438;SHT31;67736;51.978;5.656;2023-04-01T13:17:25;14.7;73.0
78438;SHT31;67736;51.978;5.656;2023-04-01T13:20:05;14.7;71.9
78438;SHT31;67736;51.978;5.656;2023-04-01T13:22:49;14.8;71.7
78438;SHT31;67736;51.978;5.656;2023-04-01T13:25:26;14.8;72.1
78438;SHT31;67736;51.978;5.656;2023-04-01T13:28:08;14.8;71.9
78438;SHT31;67736;51.978;5.656;2023-04-01T13:30:46;14.9;70.8
78438;SHT31;67736;51.978;5.656;2023-04-01T13:33:27;14.9;71.6
78438;SHT31;67736;51.978;5.656;2023-04-01T13:36:10;14.9;71.2
78438;SHT31;67736;51.978;5.656;2023-04-01T13:39:34;14.9;71.3
78438;SHT31;67736;51.978;5.656;2023-04-01T13:42:16;14.9;70.8
78438;SHT31;67736;51.978;5.656;2023-04-01T13:44:56;14.8;70.8
78438;SHT31;67736;51.978;5.656;2023-04-01T13:47:54;14.8;71.0
78438;SHT31;67736;51.978;5.656;2023-04-01T13:50:32;14.8;71.7
78438;SHT31;67736;51.978;5.656;2023-04-01T13:53:29;14.7;71.3
78438;SHT31;67736;51.978;5.656;2023-04-01T13:56:08;14.7;71.6
78438;SHT31;67736;51.978;5.656;2023-04-01T13:59:04;14.6;71.7
78438;SHT31;67736;51.978;5.656;2023-04-01T14:01:41;14.6;72.6
78438;SHT31;67736;51.978;5.656;2023-04-01T14:04:27;14.6;72.9
78438;SHT31;67736;51.978;5.656;2023-04-01T14:07:13;14.6;72.7
78438;SHT31;67736;51.978;5.656;2023-04-01T14:10:20;14.6;73.0
78438;SHT31;67736;51.978;5.656;2023-04-01T14:13:00;14.5;73.3
78438;SHT31;67736;51.978;5.656;2023-04-01T14:15:57;14.5;73.1
78438;SHT31;67736;51.978;5.656;2023-04-01T14:19:56;14.5;73.2
78438;SHT31;67736;51.978;5.656;2023-04-01T14:22:37;14.5;73.6
78438;SHT31;67736;51.978;5.656;2023-04-01T14:25:32;14.5;73.7
78438;SHT31;67736;51.978;5.656;2023-04-01T14:28:12;14.5;73.5
78438;SHT31;67736;51.978;5.656;2023-04-01T14:30:59;14.5;73.1
78438;SHT31;67736;51.978;5.656;2023-04-01T14:33:41;14.5;73.2
78438;SHT31;67736;51.978;5.656;2023-04-01T14:36:48;14.5;73.5
78438;SHT31;67736;51.978;5.656;2023-04-01T14:39:38;14.5;73.5
78438;SHT31;67736;51.978;5.656;2023-04-01T14:42:29;14.5;73.7
78438;SHT31;67736;51.978;5.656;2023-04-01T14:45:18;14.5;73.7
78438;SHT31;67736;51.978;5.656;2023-04-01T14:47:50;14.4;73.7
78438;SHT31;67736;51.978;5.656;2023-04-01T14:50:23;14.5;74.0
78438;SHT31;67736;51.978;5.656;2023-04-01T14:53:11;14.5;73.9
78438;SHT31;67736;51.978;5.656;2023-04-01T14:55:50;14.5;74.0
78438;SHT31;67736;51.978;5.656;2023-04-01T14:58:21;14.5;73.4
78438;SHT31;67736;51.978;5.656;2023-04-01T15:01:06;14.5;73.8
78438;SHT31;67736;51.978;5.656;2023-04-01T15:03:40;14.5;73.4
78438;SHT31;67736;51.978;5.656;2023-04-01T15:06:38;14.6;72.8
78438;SHT31;67736;51.978;5.656;2023-04-01T15:09:15;14.6;73.1
78438;SHT31;67736;51.978;5.656;2023-04-01T15:11:53;14.6;73.4
78438;SHT31;67736;51.978;5.656;2023-04-01T15:14:41;14.6;73.3
78438;SHT31;67736;51.978;5.656;2023-04-01T15:17:32;14.6;73.5
78438;SHT31;67736;51.978;5.656;2023-04-01T15:21:20;14.6;72.8
78438;SHT31;67736;51.978;5.656;2023-04-01T15:24:10;14.6;73.2
78438;SHT31;67736;51.978;5.656;2023-04-01T15:26:54;14.6;72.7
78438;SHT31;67736;51.978;5.656;2023-04-01T15:29:43;14.6;72.9
78438;SHT31;67736;51.978;5.656;2023-04-01T15:32:23;14.6;72.5
78438;SHT31;67736;51.978;5.656;2023-04-01T15:35:03;14.6;72.0
78438;SHT31;67736;51.978;5.656;2023-04-01T15:37:45;14.6;71.3
78438;SHT31;67736;51.978;5.656;2023-04-01T15:40:23;14.5;71.2
78438;SHT31;67736;51.978;5.656;2023-04-01T15:43:04;14.5;71.2
78438;SHT31;67736;51.978;5.656;2023-04-01T15:45:45;14.4;72.0
78438;SHT31;67736;51.978;5.656;2023-04-01T15:48:34;14.3;72.6
78438;SHT31;67736;51.978;5.656;2023-04-01T15:51:26;14.3;72.7
78438;SHT31;67736;51.978;5.656;2023-04-01T15:55:27;14.3;73.3
78438;SHT31;67736;51.978;5.656;2023-04-01T15:58:29;14.3;73.6
78438;SHT31;67736;51.978;5.656;2023-04-01T16:01:10;14.2;72.1
78438;SHT31;67736;51.978;5.656;2023-04-01T16:03:51;14.2;72.0
78438;SHT31;67736;51.978;5.656;2023-04-01T16:06:58;14.2;72.2
78438;SHT31;67736;51.978;5.656;2023-04-01T16:11:06;14.1;71.8
78438;SHT31;67736;51.978;5.656;2023-04-01T16:13:54;14.1;72.7
78438;SHT31;67736;51.978;5.656;2023-04-01T16:16:44;14.0;72.7
78438;SHT31;67736;51.978;5.656;2023-04-01T16:20:19;14.0;71.8
78438;SHT31;67736;51.978;5.656;2023-04-01T16:22:55;13.9;72.7
78438;SHT31;67736;51.978;5.656;2023-04-01T16:25:33;13.9;71.9
78438;SHT31;67736;51.978;5.656;2023-04-01T16:28:18;13.9;72.5
78438;SHT31;67736;51.978;5.656;2023-04-01T16:31:00;13.8;72.1
78438;SHT31;67736;51.978;5.656;2023-04-01T16:33:39;13.8;73.0
78438;SHT31;67736;51.978;5.656;2023-04-01T16:36:24;13.8;72.9
78438;SHT31;67736;51.978;5.656;2023-04-01T16:39:11;13.8;72.7
78438;SHT31;67736;51.978;5.656;2023-04-01T16:41:49;13.8;73.3
78438;SHT31;67736;51.978;5.656;2023-04-01T16:44:23;13.8;72.6
78438;SHT31;67736;51.978;5.656;2023-04-01T16:46:56;13.7;73.1
78438;SHT31;67736;51.978;5.656;2023-04-01T16:49:33;13.7;72.6
78438;SHT31;67736;51.978;5.656;2023-04-01T16:52:15;13.7;71.8
78438;SHT31;67736;51.978;5.656;2023-04-01T16:54:55;13.7;72.3
78438;SHT31;67736;51.978;5.656;2023-04-01T16:57:35;13.7;72.1
78438;SHT31;67736;51.978;5.656;2023-04-01T17:00:21;13.7;72.5
78438;SHT31;67736;51.978;5.656;2023-04-01T17:02:58;13.6;72.1
78438;SHT31;67736;51.978;5.656;2023-04-01T17:05:43;13.6;72.2
78438;SHT31;67736;51.978;5.656;2023-04-01T17:08:26;13.6;72.2
78438;SHT31;67736;51.978;5.656;2023-04-01T17:11:06;13.5;72.3
78438;SHT31;67736;51.978;5.656;2023-04-01T17:13:46;13.5;72.0
78438;SHT31;67736;51.978;5.656;2023-04-01T17:16:41;13.5;72.4
78438;SHT31;67736;51.978;5.656;2023-04-01T17:19:30;13.4;72.9
78438;SHT31;67736;51.978;5.656;2023-04-01T17:22:16;13.4;72.1
78438;SHT31;67736;51.978;5.656;2023-04-01T17:24:57;13.4;71.9
78438;SHT31;67736;51.978;5.656;2023-04-01T17:27:44;13.4;71.9
78438;SHT31;67736;51.978;5.656;2023-04-01T17:30:26;13.3;71.3
78438;SHT31;67736;51.978;5.656;2023-04-01T17:33:29;13.3;71.1
78438;SHT31;67736;51.978;5.656;2023-04-01T17:36:07;13.3;71.0
78438;SHT31;67736;51.978;5.656;2023-04-01T17:39:18;13.2;71.7
78438;SHT31;67736;51.978;5.656;2023-04-01T17:41:57;13.2;71.5
78438;SHT31;67736;51.978;5.656;2023-04-01T17:44:40;13.1;71.7
78438;SHT31;67736;51.978;5.656;2023-04-01T17:47:25;13.1;71.5
78438;SHT31;67736;51.978;5.656;2023-04-01T17:50:05;13.0;71.6
78438;SHT31;67736;51.978;5.656;2023-04-01T17:52:43;13.0;71.6
78438;SHT31;67736;51.978;5.656;2023-04-01T17:56:18;12.9;71.7
78438;SHT31;67736;51.978;5.656;2023-04-01T17:59:01;12.8;72.5
78438;SHT31;67736;51.978;5.656;2023-04-01T18:01:48;12.8;72.6
78438;SHT31;67736;51.978;5.656;2023-04-01T18:04:40;12.8;72.2
78438;SHT31;67736;51.978;5.656;2023-04-01T18:07:33;12.7;72.3
78438;SHT31;67736;51.978;5.656;2023-04-01T18:10:17;12.7;72.5
78438;SHT31;67736;51.978;5.656;2023-04-01T18:13:07;12.7;72.1
78438;SHT31;67736;51.978;5.656;2023-04-01T18:15:46;12.6;71.5
78438;SHT31;67736;51.978;5.656;2023-04-01T18:18:35;12.6;71.6
78438;SHT31;67736;51.978;5.656;2023-04-01T18:21:14;12.5;72.1
78438;SHT31;67736;51.978;5.656;2023-04-01T18:23:53;12.5;72.0
78438;SHT31;67736;51.978;5.656;2023-04-01T18:26:28;12.5;71.9
78438;SHT31;67736;51.978;5.656;2023-04-01T18:29:04;12.4;72.0